Time;durP1;ratioP1;P1;durP2;ratioP2;P2;SDS_P1;SDS_P2;PMS_P1;PMS_P2;Temp;Humidity;BMP_temperature;BMP_pressure;BME280_temperature;BME280_humidity;BME280_pressure;Samples;Min_cycle;Max_cycle;Signal;HPM_P1;HPM_P2
2023/03/05 00:02:26;;;;;;;1.60;0.93;;;;;;;;;;6165760;28;20304;-81
2023/03/05 00:05:33;;;;;;;3.43;1.03;;;;;;;;;;6175519;28;20299;-83
2023/03/05 00:08:40;;;;;;;1.33;1.07;;;;;;;;;;6180781;28;20297;-82
2023/03/05 00:11:45;;;;;;;0.83;0.83;;;;;;;;;;6156015;28;20302;-82
2023/03/05 00:14:51;;;;;;;1.07;0.97;;;;;;;;;;6151195;29;20551;-82
2023/03/05 00:17:56;;;;;;;1.30;1.00;;;;;;;;;;6141167;28;20297;-83
2023/03/05 00:21:01;;;;;;;1.90;0.90;;;;;;;;;;6141326;28;20304;-82
2023/03/05 00:24:11;;;;;;;4.10;0.90;;;;;;;;;;6140205;28;20296;-82
2023/03/05 00:27:16;;;;;;;0.90;0.90;;;;;;;;;;6142004;28;20565;-83
2023/03/05 00:30:21;;;;;;;1.90;0.80;;;;;;;;;;6141116;28;20299;-82
2023/03/05 00:33:26;;;;;;;1.73;0.93;;;;;;;;;;6155384;28;20306;-81
2023/03/05 00:36:34;;;;;;;0.90;0.90;;;;;;;;;;6141753;28;20449;-80
2023/03/05 00:39:41;;;;;;;1.77;0.90;;;;;;;;;;6141721;28;20296;-81
2023/03/05 00:42:47;;;;;;;1.00;1.00;;;;;;;;;;6140783;28;20302;-82
2023/03/05 00:45:52;;;;;;;0.80;0.80;;;;;;;;;;6140987;28;20381;-82
2023/03/05 00:48:58;;;;;;;1.60;1.13;;;;;;;;;;6140418;28;20487;-83
2023/03/05 00:52:03;;;;;;;1.00;0.97;;;;;;;;;;6156039;28;20297;-82
2023/03/05 00:55:11;;;;;;;0.87;0.87;;;;;;;;;;6140762;28;20300;-83
2023/03/05 00:58:16;;;;;;;1.13;0.90;;;;;;;;;;6154218;28;20316;-81
2023/03/05 01:01:22;;;;;;;0.90;0.87;;;;;;;;;;6154624;28;20284;-82
2023/03/05 01:04:27;;;;;;;0.80;0.80;;;;;;;;;;6139612;28;20316;-82
2023/03/05 01:07:32;;;;;;;1.90;1.10;;;;;;;;;;6122565;28;20565;-82
2023/03/05 01:10:40;;;;;;;0.93;0.90;;;;;;;;;;6150047;28;20299;-84
2023/03/05 01:13:46;;;;;;;1.10;1.10;;;;;;;;;;6140409;28;20293;-82
2023/03/05 01:16:51;;;;;;;1.27;0.90;;;;;;;;;;6140170;28;20601;-83
2023/03/05 01:19:57;;;;;;;1.50;1.10;;;;;;;;;;6139702;28;20301;-82
2023/03/05 01:23:02;;;;;;;1.33;1.00;;;;;;;;;;6122563;28;20321;-83
2023/03/05 01:26:09;;;;;;;0.90;0.90;;;;;;;;;;6139745;28;20317;-82
2023/03/05 01:29:14;;;;;;;0.90;0.90;;;;;;;;;;6139738;28;20297;-82
2023/03/05 01:32:19;;;;;;;0.90;0.90;;;;;;;;;;6139405;28;20299;-83
2023/03/05 01:35:25;;;;;;;3.00;1.00;;;;;;;;;;6138889;28;20295;-83
2023/03/05 01:38:31;;;;;;;0.90;0.90;;;;;;;;;;6139633;28;20307;-82
2023/03/05 01:41:38;;;;;;;1.00;0.97;;;;;;;;;;6139118;28;20304;-82
2023/03/05 01:45:02;;;;;;;0.80;0.80;;;;;;;;;;6153570;28;20310;-82
2023/03/05 01:48:08;;;;;;;0.97;0.97;;;;;;;;;;6154045;28;20292;-82
2023/03/05 01:51:13;;;;;;;1.00;1.00;;;;;;;;;;6140821;28;20306;-83
2023/03/05 01:54:20;;;;;;;0.80;0.80;;;;;;;;;;6138371;28;20298;-81
2023/03/05 01:57:32;;;;;;;0.87;0.87;;;;;;;;;;6138290;28;20301;-82
2023/03/05 02:00:41;;;;;;;0.70;0.70;;;;;;;;;;6168993;23;20296;-75
2023/03/05 02:03:47;;;;;;;2.43;1.00;;;;;;;;;;6166767;28;20287;-75
2023/03/05 02:06:53;;;;;;;1.50;0.90;;;;;;;;;;6169587;28;20563;-75
2023/03/05 02:09:58;;;;;;;2.30;0.90;;;;;;;;;;6185929;28;20302;-75
2023/03/05 02:13:06;;;;;;;2.17;1.20;;;;;;;;;;6168621;28;20603;-75
2023/03/05 02:16:13;;;;;;;0.80;0.80;;;;;;;;;;6186930;28;20586;-75
2023/03/05 02:19:19;;;;;;;1.07;1.07;;;;;;;;;;6184895;28;20301;-75
2023/03/05 02:22:25;;;;;;;1.13;1.10;;;;;;;;;;6169780;28;20453;-75
2023/03/05 02:25:31;;;;;;;1.10;1.03;;;;;;;;;;6159620;28;20425;-74
2023/03/05 02:28:39;;;;;;;3.10;1.00;;;;;;;;;;6186042;28;20290;-75
2023/03/05 02:31:44;;;;;;;1.70;0.90;;;;;;;;;;6186549;28;20290;-75
2023/03/05 02:34:49;;;;;;;0.80;0.80;;;;;;;;;;6186022;28;20470;-74
2023/03/05 02:37:56;;;;;;;0.77;0.77;;;;;;;;;;6168098;28;20293;-76
2023/03/05 02:41:02;;;;;;;1.10;0.70;;;;;;;;;;6185950;28;20298;-76
2023/03/05 02:44:07;;;;;;;2.83;1.00;;;;;;;;;;6168717;28;20499;-75
2023/03/05 02:47:15;;;;;;;1.10;1.00;;;;;;;;;;6170630;28;20359;-76
2023/03/05 02:50:20;;;;;;;1.23;0.80;;;;;;;;;;6173427;28;20318;-76
2023/03/05 02:53:27;;;;;;;3.30;0.90;;;;;;;;;;6173245;28;20286;-76
2023/03/05 02:56:33;;;;;;;1.77;0.90;;;;;;;;;;6173071;28;20378;-75
2023/03/05 02:59:38;;;;;;;1.60;0.87;;;;;;;;;;6172661;28;20310;-75
2023/03/05 03:02:46;;;;;;;1.60;0.90;;;;;;;;;;6167005;28;20304;-75
2023/03/05 03:05:51;;;;;;;2.20;1.00;;;;;;;;;;6190905;28;20294;-76
2023/03/05 03:08:58;;;;;;;1.53;0.90;;;;;;;;;;6189737;28;20627;-75
2023/03/05 03:12:04;;;;;;;0.70;0.70;;;;;;;;;;6190970;28;20296;-76
2023/03/05 03:15:11;;;;;;;1.00;1.00;;;;;;;;;;6189790;28;20308;-75
2023/03/05 03:18:16;;;;;;;0.90;0.90;;;;;;;;;;6190357;28;20582;-76
2023/03/05 03:21:23;;;;;;;1.23;0.80;;;;;;;;;;6191269;28;20306;-76
2023/03/05 03:24:31;;;;;;;0.93;0.93;;;;;;;;;;6190071;28;20353;-75
2023/03/05 03:27:37;;;;;;;1.50;0.80;;;;;;;;;;6190593;28;20295;-75
2023/03/05 03:30:44;;;;;;;1.47;0.70;;;;;;;;;;6190814;28;20310;-75
2023/03/05 03:33:49;;;;;;;0.80;0.80;;;;;;;;;;6190285;28;20298;-75
2023/03/05 03:36:54;;;;;;;1.60;0.97;;;;;;;;;;6190120;28;20461;-75
2023/03/05 03:40:01;;;;;;;0.80;0.80;;;;;;;;;;6188350;28;20309;-75
2023/03/05 03:43:06;;;;;;;0.90;0.90;;;;;;;;;;6189528;28;20293;-75
2023/03/05 03:46:12;;;;;;;1.33;0.93;;;;;;;;;;6189823;28;20482;-75
2023/03/05 03:49:20;;;;;;;2.10;0.97;;;;;;;;;;6188496;28;20300;-75
2023/03/05 03:52:25;;;;;;;1.00;0.90;;;;;;;;;;6189387;28;20270;-76
2023/03/05 03:55:32;;;;;;;2.67;0.87;;;;;;;;;;6189736;28;20486;-76
2023/03/05 03:58:37;;;;;;;1.57;0.80;;;;;;;;;;6189099;28;20290;-76
2023/03/05 04:01:43;;;;;;;1.00;1.00;;;;;;;;;;6188431;28;20377;-75
2023/03/05 04:04:47;;;;;;;0.80;0.80;;;;;;;;;;6182677;28;20298;-75
2023/03/05 04:07:53;;;;;;;0.70;0.70;;;;;;;;;;6188842;28;20305;-75
2023/03/05 04:11:01;;;;;;;2.80;0.80;;;;;;;;;;6189411;28;20309;-75
2023/03/05 04:14:07;;;;;;;1.10;0.80;;;;;;;;;;6188298;28;20302;-75
2023/03/05 04:17:12;;;;;;;0.73;0.73;;;;;;;;;;6189257;28;20306;-76
2023/03/05 04:20:17;;;;;;;0.70;0.70;;;;;;;;;;6188738;28;20385;-75
2023/03/05 04:23:41;;;;;;;1.37;0.90;;;;;;;;;;6188700;28;20294;-75
2023/03/05 04:26:48;;;;;;;0.80;0.80;;;;;;;;;;6187356;28;20330;-76
2023/03/05 04:29:53;;;;;;;1.20;0.73;;;;;;;;;;6188837;28;20298;-75
2023/03/05 04:32:58;;;;;;;0.90;0.90;;;;;;;;;;6188314;28;20301;-75
2023/03/05 04:36:03;;;;;;;1.00;1.00;;;;;;;;;;6189664;28;20298;-75
2023/03/05 04:39:09;;;;;;;0.90;0.90;;;;;;;;;;6188995;28;20610;-75
2023/03/05 04:42:17;;;;;;;0.80;0.80;;;;;;;;;;6189401;28;20305;-75
2023/03/05 04:45:22;;;;;;;0.87;0.87;;;;;;;;;;6187513;28;20303;-75
2023/03/05 04:48:27;;;;;;;1.37;1.00;;;;;;;;;;6188269;28;20298;-75
2023/03/05 04:51:32;;;;;;;1.80;1.00;;;;;;;;;;6188730;28;20314;-75
2023/03/05 04:54:38;;;;;;;1.20;0.87;;;;;;;;;;6201368;28;20345;-74
2023/03/05 04:57:44;;;;;;;0.90;0.90;;;;;;;;;;6187786;28;20300;-75
2023/03/05 05:00:49;;;;;;;1.67;0.80;;;;;;;;;;6187704;28;20308;-75
2023/03/05 05:03:55;;;;;;;0.70;0.70;;;;;;;;;;6188213;28;20304;-76
2023/03/05 05:07:00;;;;;;;1.33;1.00;;;;;;;;;;6188381;28;20301;-75
2023/03/05 05:10:07;;;;;;;0.90;0.90;;;;;;;;;;6187080;28;20501;-76
2023/03/05 05:13:13;;;;;;;1.00;1.00;;;;;;;;;;6186553;28;20292;-75
2023/03/05 05:16:22;;;;;;;0.83;0.83;;;;;;;;;;6187101;28;20278;-75
2023/03/05 05:19:28;;;;;;;0.90;0.90;;;;;;;;;;6187236;28;20294;-75
2023/03/05 05:22:33;;;;;;;1.47;0.90;;;;;;;;;;6187680;28;20269;-75
2023/03/05 05:25:39;;;;;;;1.90;0.93;;;;;;;;;;6187842;28;20316;-75
2023/03/05 05:28:45;;;;;;;1.00;1.00;;;;;;;;;;6187561;28;20293;-76
2023/03/05 05:31:52;;;;;;;0.90;0.90;;;;;;;;;;6187703;28;20289;-76
2023/03/05 05:34:59;;;;;;;1.60;0.80;;;;;;;;;;6187152;28;20303;-75
2023/03/05 05:38:04;;;;;;;0.80;0.80;;;;;;;;;;6187296;28;20289;-75
2023/03/05 05:41:10;;;;;;;1.33;0.83;;;;;;;;;;6187805;28;20301;-75
2023/03/05 05:44:17;;;;;;;0.80;0.80;;;;;;;;;;6186847;28;20315;-75
2023/03/05 05:47:22;;;;;;;1.33;0.90;;;;;;;;;;6187372;28;20301;-75
2023/03/05 05:50:27;;;;;;;1.00;1.00;;;;;;;;;;6187228;28;20326;-75
2023/03/05 05:53:32;;;;;;;1.50;0.80;;;;;;;;;;6186699;28;20292;-77
2023/03/05 05:56:38;;;;;;;1.77;1.03;;;;;;;;;;6185960;28;20297;-75
2023/03/05 05:59:44;;;;;;;1.90;1.00;;;;;;;;;;6187025;28;20302;-75
2023/03/05 06:02:49;;;;;;;0.90;0.90;;;;;;;;;;6186200;28;20312;-76
2023/03/05 06:05:55;;;;;;;0.90;0.90;;;;;;;;;;6185423;28;20292;-76
2023/03/05 06:09:00;;;;;;;1.33;0.80;;;;;;;;;;6186631;28;20297;-76
2023/03/05 06:12:06;;;;;;;0.90;0.90;;;;;;;;;;6187176;28;20294;-75
2023/03/05 06:15:15;;;;;;;3.10;0.90;;;;;;;;;;6186704;28;20481;-75
2023/03/05 06:18:20;;;;;;;0.93;0.90;;;;;;;;;;6186526;28;20297;-75
2023/03/05 06:21:25;;;;;;;0.90;0.90;;;;;;;;;;6186901;28;20297;-76
2023/03/05 06:24:30;;;;;;;1.07;1.07;;;;;;;;;;6187151;28;20466;-76
2023/03/05 06:27:36;;;;;;;0.87;0.87;;;;;;;;;;6186354;28;20379;-76
2023/03/05 06:30:42;;;;;;;0.83;0.83;;;;;;;;;;6186822;28;20306;-76
2023/03/05 06:33:48;;;;;;;0.87;0.87;;;;;;;;;;6184878;28;20293;-76
2023/03/05 06:36:53;;;;;;;0.70;0.70;;;;;;;;;;6186632;28;20346;-76
2023/03/05 06:39:59;;;;;;;0.80;0.80;;;;;;;;;;6186185;28;20302;-76
2023/03/05 06:43:04;;;;;;;0.73;0.73;;;;;;;;;;6185783;28;20300;-76
2023/03/05 06:46:13;;;;;;;1.77;0.80;;;;;;;;;;6175102;28;20301;-75
2023/03/05 06:49:18;;;;;;;0.80;0.80;;;;;;;;;;6184512;28;20305;-76
2023/03/05 06:52:23;;;;;;;0.80;0.80;;;;;;;;;;6186436;28;20287;-76
2023/03/05 06:55:29;;;;;;;6.70;0.87;;;;;;;;;;6186385;28;20365;-75
2023/03/05 06:58:34;;;;;;;1.00;1.00;;;;;;;;;;6186168;28;20295;-77
2023/03/05 07:01:40;;;;;;;1.07;0.90;;;;;;;;;;6186091;28;20608;-75
2023/03/05 07:04:46;;;;;;;0.80;0.80;;;;;;;;;;6186409;28;20295;-75
2023/03/05 07:07:51;;;;;;;0.80;0.80;;;;;;;;;;6186073;28;20290;-76
2023/03/05 07:10:57;;;;;;;0.80;0.80;;;;;;;;;;6186329;28;20290;-76
2023/03/05 07:14:02;;;;;;;1.00;0.90;;;;;;;;;;6185635;28;20295;-75
2023/03/05 07:17:08;;;;;;;1.13;0.70;;;;;;;;;;6186620;28;20298;-74
2023/03/05 07:20:14;;;;;;;1.47;1.13;;;;;;;;;;6185754;28;20311;-76
2023/03/05 07:23:19;;;;;;;2.43;0.80;;;;;;;;;;6185882;28;20302;-75
2023/03/05 07:26:24;;;;;;;2.10;1.00;;;;;;;;;;6186640;28;20306;-76
2023/03/05 07:29:29;;;;;;;0.90;0.90;;;;;;;;;;6185867;28;20298;-75
2023/03/05 07:32:37;;;;;;;1.43;0.90;;;;;;;;;;6185872;28;20299;-74
2023/03/05 07:35:42;;;;;;;0.90;0.90;;;;;;;;;;6190726;28;20291;-75
2023/03/05 07:38:48;;;;;;;1.53;1.10;;;;;;;;;;6189897;28;20299;-76
2023/03/05 07:41:53;;;;;;;1.00;1.00;;;;;;;;;;6190307;28;20303;-76
2023/03/05 07:45:06;;;;;;;0.80;0.80;;;;;;;;;;6204552;28;20299;-76
2023/03/05 07:48:19;;;;;;;0.70;0.70;;;;;;;;;;6188679;28;20287;-75
2023/03/05 07:51:26;;;;;;;0.90;0.90;;;;;;;;;;6190454;28;20304;-75
2023/03/05 07:54:31;;;;;;;1.07;0.70;;;;;;;;;;6189758;28;20296;-75
2023/03/05 07:57:37;;;;;;;1.00;0.90;;;;;;;;;;6189475;28;20304;-76
2023/03/05 08:00:43;;;;;;;0.70;0.70;;;;;;;;;;6190110;28;20576;-76
2023/03/05 08:03:49;;;;;;;1.07;0.93;;;;;;;;;;6189689;28;20295;-76
2023/03/05 08:06:55;;;;;;;0.80;0.80;;;;;;;;;;6189728;28;20490;-76
2023/03/05 08:10:00;;;;;;;1.60;0.93;;;;;;;;;;6189162;28;20589;-75
2023/03/05 08:13:05;;;;;;;0.90;0.90;;;;;;;;;;6189253;28;20292;-76
2023/03/05 08:16:14;;;;;;;0.80;0.80;;;;;;;;;;6189544;28;20376;-76
2023/03/05 08:19:21;;;;;;;0.83;0.83;;;;;;;;;;6188182;28;20492;-75
2023/03/05 08:22:26;;;;;;;1.97;1.10;;;;;;;;;;6189255;28;20293;-76
2023/03/05 08:25:31;;;;;;;1.03;1.03;;;;;;;;;;6188578;28;20296;-75
2023/03/05 08:28:36;;;;;;;1.20;1.20;;;;;;;;;;6189627;28;20296;-75
2023/03/05 08:31:46;;;;;;;7.97;5.50;;;;;;;;;;6189304;28;20474;-76
2023/03/05 08:34:57;;;;;;;1.60;1.60;;;;;;;;;;6188602;28;20298;-75
2023/03/05 08:38:02;;;;;;;1.50;1.00;;;;;;;;;;6188237;28;20369;-76
2023/03/05 08:41:08;;;;;;;1.00;1.00;;;;;;;;;;6189109;28;20313;-76
2023/03/05 08:44:14;;;;;;;1.00;1.00;;;;;;;;;;6186229;28;20301;-75
2023/03/05 08:47:19;;;;;;;5.73;0.90;;;;;;;;;;6188502;28;20473;-76
2023/03/05 08:50:26;;;;;;;1.90;1.80;;;;;;;;;;6177995;28;20297;-75
2023/03/05 08:53:31;;;;;;;5.00;4.57;;;;;;;;;;6188174;28;20297;-75
2023/03/05 08:56:36;;;;;;;2.77;2.40;;;;;;;;;;6203042;28;20297;-75
2023/03/05 08:59:41;;;;;;;1.30;1.20;;;;;;;;;;6188622;28;20298;-75
2023/03/05 09:02:46;;;;;;;2.20;1.03;;;;;;;;;;6187792;28;20486;-74
2023/03/05 09:05:53;;;;;;;0.90;0.90;;;;;;;;;;6189188;28;20302;-76
2023/03/05 09:08:58;;;;;;;1.00;1.00;;;;;;;;;;6188310;28;20290;-76
2023/03/05 09:12:04;;;;;;;0.90;0.90;;;;;;;;;;6186914;28;20301;-75
2023/03/05 09:15:11;;;;;;;1.37;1.03;;;;;;;;;;6188367;28;20436;-75
2023/03/05 09:18:16;;;;;;;1.20;1.20;;;;;;;;;;6188457;28;20294;-75
2023/03/05 09:21:23;;;;;;;1.17;1.17;;;;;;;;;;6188357;28;20297;-76
2023/03/05 09:24:28;;;;;;;0.97;0.90;;;;;;;;;;6187476;28;20294;-75
2023/03/05 09:27:34;;;;;;;1.33;1.33;;;;;;;;;;6185600;28;20306;-75
2023/03/05 09:30:39;;;;;;;1.60;1.50;;;;;;;;;;6186992;28;20312;-76
2023/03/05 09:33:44;;;;;;;5.27;1.00;;;;;;;;;;6187564;28;20299;-75
2023/03/05 09:36:51;;;;;;;1.17;1.17;;;;;;;;;;6188363;28;20341;-75
2023/03/05 09:39:57;;;;;;;5.50;1.10;;;;;;;;;;6187306;28;20303;-75
2023/03/05 09:43:06;;;;;;;1.40;0.80;;;;;;;;;;6186799;28;20625;-75
2023/03/05 09:46:24;;;;;;;1.27;1.00;;;;;;;;;;6202736;28;20615;-75
2023/03/05 09:49:45;;;;;;;1.60;0.90;;;;;;;;;;6185694;28;20610;-74
2023/03/05 09:52:56;;;;;;;3.70;0.90;;;;;;;;;;6187325;28;20602;-75
2023/03/05 09:56:03;;;;;;;2.17;1.10;;;;;;;;;;6187005;28;20469;-75
2023/03/05 09:59:21;;;;;;;1.13;1.10;;;;;;;;;;6186351;28;20457;-75
2023/03/05 10:02:29;;;;;;;0.87;0.80;;;;;;;;;;6186651;28;20320;-76
2023/03/05 10:06:00;;;;;;;2.50;0.83;;;;;;;;;;6186414;28;20297;-75
2023/03/05 10:09:14;;;;;;;3.40;1.47;;;;;;;;;;6184825;28;20328;-76
2023/03/05 10:12:26;;;;;;;1.10;1.10;;;;;;;;;;6186907;28;20304;-75
2023/03/05 10:15:39;;;;;;;1.00;0.80;;;;;;;;;;6186097;28;20305;-75
2023/03/05 10:18:51;;;;;;;2.47;0.80;;;;;;;;;;6186530;28;20297;-77
2023/03/05 10:22:08;;;;;;;2.87;1.10;;;;;;;;;;6187295;28;20302;-75
2023/03/05 10:25:23;;;;;;;8.27;1.50;;;;;;;;;;6186523;28;20306;-77
2023/03/05 10:28:35;;;;;;;1.00;1.00;;;;;;;;;;6185579;28;20292;-74
2023/03/05 10:31:58;;;;;;;3.57;1.07;;;;;;;;;;6186958;28;20300;-74
2023/03/05 10:35:31;;;;;;;0.97;0.90;;;;;;;;;;6185955;28;20308;-75
2023/03/05 10:39:00;;;;;;;0.83;0.83;;;;;;;;;;6186360;28;20285;-74
2023/03/05 10:42:15;;;;;;;1.60;0.90;;;;;;;;;;6185566;28;20292;-75
2023/03/05 10:45:24;;;;;;;1.00;1.00;;;;;;;;;;6186674;28;20465;-75
2023/03/05 10:48:36;;;;;;;1.10;1.00;;;;;;;;;;6186222;28;20297;-74
2023/03/05 10:51:44;;;;;;;0.90;0.90;;;;;;;;;;6186349;28;20310;-73
2023/03/05 10:54:50;;;;;;;1.10;1.10;;;;;;;;;;6185679;28;20320;-79
2023/03/05 10:57:57;;;;;;;6.77;1.47;;;;;;;;;;6186749;28;20289;-79
2023/03/05 11:01:06;;;;;;;0.90;0.90;;;;;;;;;;6186274;28;20297;-78
2023/03/05 11:04:27;;;;;;;2.10;1.10;;;;;;;;;;6186115;28;20597;-77
2023/03/05 11:07:37;;;;;;;1.00;1.00;;;;;;;;;;6174540;28;20278;-78
2023/03/05 11:10:42;;;;;;;4.43;1.10;;;;;;;;;;6190802;28;20584;-77
2023/03/05 11:13:59;;;;;;;3.97;1.33;;;;;;;;;;6189544;28;20297;-76
2023/03/05 11:17:24;;;;;;;1.87;1.00;;;;;;;;;;6190829;28;20298;-75
2023/03/05 11:20:33;;;;;;;2.10;2.00;;;;;;;;;;6190262;28;20567;-76
2023/03/05 11:23:38;;;;;;;3.30;1.83;;;;;;;;;;6190262;28;20306;-76
2023/03/05 11:26:49;;;;;;;1.40;1.30;;;;;;;;;;6190627;28;20369;-76
2023/03/05 11:29:55;;;;;;;3.40;1.00;;;;;;;;;;6189559;28;20317;-77
2023/03/05 11:33:13;;;;;;;3.90;1.33;;;;;;;;;;6190199;28;20290;-76
2023/03/05 11:36:26;;;;;;;4.23;1.87;;;;;;;;;;6190668;28;20295;-77
2023/03/05 11:39:34;;;;;;;3.23;1.17;;;;;;;;;;6190333;28;20297;-76
2023/03/05 11:42:39;;;;;;;0.80;0.80;;;;;;;;;;6189882;28;20291;-77
2023/03/05 11:45:47;;;;;;;3.33;1.13;;;;;;;;;;6190664;28;20331;-74
2023/03/05 11:48:54;;;;;;;1.10;1.00;;;;;;;;;;6189901;28;20311;-77
2023/03/05 11:52:05;;;;;;;2.13;1.00;;;;;;;;;;6190109;28;20308;-76
2023/03/05 11:55:16;;;;;;;1.97;1.37;;;;;;;;;;6189383;28;20336;-77
2023/03/05 11:58:31;;;;;;;7.00;1.40;;;;;;;;;;6188957;28;20302;-77
2023/03/05 12:01:43;;;;;;;1.27;1.10;;;;;;;;;;6189290;28;20313;-77
2023/03/05 12:04:50;;;;;;;1.03;1.03;;;;;;;;;;6188559;28;20293;-77
2023/03/05 12:07:58;;;;;;;1.33;0.90;;;;;;;;;;6188759;28;20590;-77
2023/03/05 12:11:08;;;;;;;3.10;1.10;;;;;;;;;;6189297;28;20307;-77
2023/03/05 12:14:19;;;;;;;2.27;1.40;;;;;;;;;;6189314;28;20293;-76
2023/03/05 12:17:31;;;;;;;2.40;1.00;;;;;;;;;;6189516;28;20300;-77
2023/03/05 12:20:42;;;;;;;1.63;1.20;;;;;;;;;;6188401;28;20295;-78
2023/03/05 12:23:50;;;;;;;2.00;1.10;;;;;;;;;;6188295;28;20300;-76
2023/03/05 12:27:06;;;;;;;2.40;1.30;;;;;;;;;;6187119;28;20329;-76
2023/03/05 12:31:04;;;;;;;2.13;1.27;;;;;;;;;;6188850;28;20304;-77
2023/03/05 12:34:51;;;;;;;3.10;0.90;;;;;;;;;;6137517;29;20307;-77
2023/03/05 12:38:03;;;;;;;0.93;0.93;;;;;;;;;;6136598;29;20295;-77
2023/03/05 12:41:38;;;;;;;1.27;1.03;;;;;;;;;;6138348;29;20305;-77
2023/03/05 12:44:44;;;;;;;1.57;0.90;;;;;;;;;;6137460;29;20306;-78
2023/03/05 12:48:43;;;;;;;1.27;1.23;;;;;;;;;;6137429;29;20303;-77
2023/03/05 12:51:49;;;;;;;2.40;1.40;;;;;;;;;;6068162;29;20299;-77
2023/03/05 12:55:18;;;;;;;1.60;1.50;;;;;;;;;;6067372;29;20645;-77
2023/03/05 12:58:33;;;;;;;0.90;0.90;;;;;;;;;;6066649;29;20295;-77
2023/03/05 13:01:42;;;;;;;1.00;1.00;;;;;;;;;;6067568;29;20294;-79
2023/03/05 13:04:47;;;;;;;2.90;0.80;;;;;;;;;;6074446;29;20370;-80
2023/03/05 13:07:53;;;;;;;1.23;1.23;;;;;;;;;;6113975;29;20513;-77
2023/03/05 13:11:00;;;;;;;1.73;0.90;;;;;;;;;;6114206;29;20297;-75
2023/03/05 13:14:32;;;;;;;2.60;0.97;;;;;;;;;;6113115;29;20319;-77
2023/03/05 13:17:40;;;;;;;3.00;1.17;;;;;;;;;;6113477;29;20294;-78
2023/03/05 13:20:49;;;;;;;1.13;1.00;;;;;;;;;;6114163;29;20512;-77
2023/03/05 13:23:57;;;;;;;3.07;1.13;;;;;;;;;;6185304;28;20306;-79
2023/03/05 13:27:20;;;;;;;1.13;1.03;;;;;;;;;;6187832;28;20592;-78
2023/03/05 13:30:27;;;;;;;2.40;1.40;;;;;;;;;;6187160;28;20294;-77
2023/03/05 13:33:34;;;;;;;8.03;1.40;;;;;;;;;;6185655;28;20298;-76
2023/03/05 13:36:39;;;;;;;1.10;1.10;;;;;;;;;;6187661;28;20314;-75
2023/03/05 13:39:49;;;;;;;2.07;0.80;;;;;;;;;;6187503;28;20295;-75
2023/03/05 13:42:55;;;;;;;7.77;1.53;;;;;;;;;;6187384;28;20313;-76
2023/03/05 13:46:01;;;;;;;1.40;1.03;;;;;;;;;;6187614;28;20312;-75
2023/03/05 13:49:21;;;;;;;7.40;0.90;;;;;;;;;;6187014;28;20298;-76
2023/03/05 13:52:28;;;;;;;0.80;0.80;;;;;;;;;;6186488;28;20283;-77
2023/03/05 13:55:33;;;;;;;1.63;0.80;;;;;;;;;;6186661;28;20278;-77
2023/03/05 13:58:48;;;;;;;2.57;1.27;;;;;;;;;;6184824;28;20295;-76
2023/03/05 14:01:54;;;;;;;1.00;1.00;;;;;;;;;;6187203;28;20293;-77
2023/03/05 14:04:59;;;;;;;3.47;0.90;;;;;;;;;;6185193;28;20348;-76
2023/03/05 14:08:04;;;;;;;0.70;0.70;;;;;;;;;;6185939;28;20299;-75
2023/03/05 14:11:14;;;;;;;1.30;0.97;;;;;;;;;;6186888;28;20299;-76
2023/03/05 14:14:23;;;;;;;0.77;0.77;;;;;;;;;;6185086;28;20307;-77
2023/03/05 14:17:40;;;;;;;0.73;0.73;;;;;;;;;;6187011;28;20303;-76
2023/03/05 14:21:03;;;;;;;1.00;1.00;;;;;;;;;;6185744;28;20323;-76
2023/03/05 14:24:13;;;;;;;1.13;0.90;;;;;;;;;;6186275;28;20363;-76
2023/03/05 14:27:20;;;;;;;1.17;1.07;;;;;;;;;;6186620;28;20594;-76
2023/03/05 14:30:29;;;;;;;2.13;1.00;;;;;;;;;;6186504;28;20289;-77
2023/03/05 14:33:35;;;;;;;1.53;0.90;;;;;;;;;;6186770;28;20289;-76
2023/03/05 14:36:40;;;;;;;2.57;1.30;;;;;;;;;;6186636;28;20298;-77
2023/03/05 14:39:49;;;;;;;4.47;1.80;;;;;;;;;;6185136;28;20294;-77
2023/03/05 14:42:56;;;;;;;1.80;1.70;;;;;;;;;;6186755;28;20416;-74
2023/03/05 14:46:02;;;;;;;1.23;1.10;;;;;;;;;;6192449;28;20581;-76
2023/03/05 14:49:07;;;;;;;4.53;1.00;;;;;;;;;;6191208;28;20602;-76
2023/03/05 14:52:16;;;;;;;1.17;1.10;;;;;;;;;;6192399;28;20289;-78
2023/03/05 14:55:32;;;;;;;0.90;0.90;;;;;;;;;;6183326;28;20286;-77
2023/03/05 14:58:37;;;;;;;1.63;0.87;;;;;;;;;;6191184;28;20297;-76
2023/03/05 15:01:44;;;;;;;2.47;1.13;;;;;;;;;;6190830;28;20298;-76
2023/03/05 15:04:49;;;;;;;2.20;1.40;;;;;;;;;;6190841;28;20358;-77
2023/03/05 15:07:55;;;;;;;1.20;1.20;;;;;;;;;;6190700;28;20298;-77
2023/03/05 15:11:02;;;;;;;2.80;1.10;;;;;;;;;;6190784;28;20298;-76
2023/03/05 15:14:07;;;;;;;1.00;1.00;;;;;;;;;;6189957;28;20295;-75
2023/03/05 15:17:20;;;;;;;1.07;1.07;;;;;;;;;;6205752;28;20299;-76
2023/03/05 15:20:27;;;;;;;2.17;1.10;;;;;;;;;;6190866;28;20297;-76
2023/03/05 15:23:36;;;;;;;1.20;1.13;;;;;;;;;;6190272;28;20294;-76
2023/03/05 15:26:41;;;;;;;2.30;2.23;;;;;;;;;;6189298;28;20301;-75
2023/03/05 15:29:46;;;;;;;1.47;1.37;;;;;;;;;;6190584;28;20304;-75
2023/03/05 15:32:54;;;;;;;1.20;1.20;;;;;;;;;;6188722;28;20287;-79
2023/03/05 15:36:00;;;;;;;2.10;1.30;;;;;;;;;;6190554;28;20590;-78
2023/03/05 15:39:05;;;;;;;1.17;1.10;;;;;;;;;;6188848;28;20478;-77
2023/03/05 15:42:11;;;;;;;1.50;1.40;;;;;;;;;;6190492;28;20294;-80
2023/03/05 15:45:17;;;;;;;3.33;1.30;;;;;;;;;;6188709;28;20594;-77
2023/03/05 15:48:24;;;;;;;1.20;1.20;;;;;;;;;;6189979;28;20305;-74
2023/03/05 15:51:29;;;;;;;1.10;1.10;;;;;;;;;;6190001;28;20313;-76
2023/03/05 15:54:36;;;;;;;1.80;1.27;;;;;;;;;;6189412;28;20306;-74
2023/03/05 15:57:44;;;;;;;0.90;0.90;;;;;;;;;;6190034;28;20417;-76
2023/03/05 16:00:49;;;;;;;2.40;1.43;;;;;;;;;;6190006;28;20301;-76
2023/03/05 16:03:56;;;;;;;2.93;1.60;;;;;;;;;;6189160;28;20309;-76
2023/03/05 16:07:06;;;;;;;1.07;1.07;;;;;;;;;;6188673;28;20309;-77
2023/03/05 16:10:13;;;;;;;1.50;1.40;;;;;;;;;;6187716;28;20296;-77
2023/03/05 16:13:18;;;;;;;3.17;1.50;;;;;;;;;;6188398;28;20552;-76
2023/03/05 16:16:25;;;;;;;1.20;1.20;;;;;;;;;;6189677;28;20292;-75
2023/03/05 16:19:34;;;;;;;1.47;1.10;;;;;;;;;;6189318;28;20302;-76
2023/03/05 16:22:39;;;;;;;1.37;1.03;;;;;;;;;;6187920;28;20285;-78
2023/03/05 16:25:45;;;;;;;2.83;1.30;;;;;;;;;;6189398;28;20607;-77
2023/03/05 16:28:50;;;;;;;3.20;2.43;;;;;;;;;;6188739;28;20589;-77
2023/03/05 16:31:55;;;;;;;1.50;1.40;;;;;;;;;;6189732;28;20320;-76
2023/03/05 16:35:02;;;;;;;1.90;1.77;;;;;;;;;;6187049;28;20306;-77
2023/03/05 16:38:08;;;;;;;3.50;1.67;;;;;;;;;;6188590;28;20299;-77
2023/03/05 16:41:15;;;;;;;5.03;1.97;;;;;;;;;;6189198;28;20566;-77
2023/03/05 16:44:21;;;;;;;2.37;1.53;;;;;;;;;;6189570;28;20302;-78
2023/03/05 16:47:29;;;;;;;1.10;1.10;;;;;;;;;;6188764;28;20306;-80
2023/03/05 16:50:36;;;;;;;1.10;1.10;;;;;;;;;;6189506;28;20301;-77
2023/03/05 16:53:44;;;;;;;2.63;1.80;;;;;;;;;;6188915;28;20294;-78
2023/03/05 16:56:49;;;;;;;4.40;1.90;;;;;;;;;;6188994;28;20448;-78
2023/03/05 16:59:55;;;;;;;1.30;1.30;;;;;;;;;;6189080;28;20299;-77
2023/03/05 17:03:00;;;;;;;5.23;1.87;;;;;;;;;;6187788;28;20297;-78
2023/03/05 17:06:11;;;;;;;2.97;1.50;;;;;;;;;;6186618;28;20296;-79
2023/03/05 17:09:18;;;;;;;3.47;1.50;;;;;;;;;;6187291;28;20296;-78
2023/03/05 17:12:24;;;;;;;1.60;1.60;;;;;;;;;;6188634;28;20296;-79
2023/03/05 17:15:29;;;;;;;2.40;1.40;;;;;;;;;;6187419;28;20296;-78
2023/03/05 17:18:34;;;;;;;1.20;1.10;;;;;;;;;;6186689;28;20297;-79
2023/03/05 17:21:41;;;;;;;1.47;1.33;;;;;;;;;;6180462;28;20569;-78
2023/03/05 17:24:46;;;;;;;2.93;2.70;;;;;;;;;;6188295;28;20305;-78
2023/03/05 17:27:52;;;;;;;7.00;1.67;;;;;;;;;;6186053;28;20308;-79
2023/03/05 17:31:00;;;;;;;1.17;1.17;;;;;;;;;;6188516;28;20294;-78
2023/03/05 17:34:05;;;;;;;1.77;1.27;;;;;;;;;;6188044;28;20616;-78
2023/03/05 17:37:11;;;;;;;1.23;1.23;;;;;;;;;;6188376;28;20293;-78
2023/03/05 17:40:17;;;;;;;1.57;1.53;;;;;;;;;;6186399;28;20296;-79
2023/03/05 17:43:23;;;;;;;1.17;1.17;;;;;;;;;;6187817;28;20475;-77
2023/03/05 17:46:28;;;;;;;1.23;1.23;;;;;;;;;;6188289;28;20273;-78
2023/03/05 17:49:33;;;;;;;2.17;1.07;;;;;;;;;;6187012;28;20307;-78
2023/03/05 17:52:40;;;;;;;1.80;1.80;;;;;;;;;;6187056;28;20295;-80
2023/03/05 17:55:45;;;;;;;3.70;1.60;;;;;;;;;;6187743;28;20284;-79
2023/03/05 17:58:51;;;;;;;1.90;1.80;;;;;;;;;;6186699;28;20301;-76
2023/03/05 18:01:56;;;;;;;3.33;2.33;;;;;;;;;;6187793;28;20325;-78
2023/03/05 18:05:01;;;;;;;1.17;1.17;;;;;;;;;;6187923;28;20299;-76
2023/03/05 18:08:13;;;;;;;1.27;1.27;;;;;;;;;;6186767;28;20296;-79
2023/03/05 18:11:18;;;;;;;1.30;1.30;;;;;;;;;;6187225;28;20295;-79
2023/03/05 18:14:24;;;;;;;1.10;1.10;;;;;;;;;;6186201;28;20259;-78
2023/03/05 18:17:29;;;;;;;4.73;1.40;;;;;;;;;;6187536;28;20303;-79
2023/03/05 18:20:36;;;;;;;3.13;1.40;;;;;;;;;;6185248;28;20291;-78
2023/03/05 18:23:43;;;;;;;2.10;1.10;;;;;;;;;;6186709;28;20290;-78
2023/03/05 18:26:48;;;;;;;1.30;1.30;;;;;;;;;;6186951;28;20482;-78
2023/03/05 18:29:54;;;;;;;1.70;1.57;;;;;;;;;;6191116;28;20303;-77
2023/03/05 18:33:02;;;;;;;1.70;1.60;;;;;;;;;;6172730;28;20296;-76
2023/03/05 18:36:09;;;;;;;3.33;1.27;;;;;;;;;;6186513;28;20323;-79
2023/03/05 18:39:17;;;;;;;1.33;1.20;;;;;;;;;;6185148;28;20295;-78
2023/03/05 18:42:22;;;;;;;1.40;1.27;;;;;;;;;;6186957;28;20293;-78
2023/03/05 18:45:28;;;;;;;1.87;1.03;;;;;;;;;;6186069;28;20302;-80
2023/03/05 18:48:33;;;;;;;11.87;7.43;;;;;;;;;;6186510;28;20300;-78